createdAt,value
2019-01-26T00:00:50.313Z,981.64
2019-01-26T00:01:49.510Z,981.66
2019-01-26T00:02:51.616Z,981.58
2019-01-26T00:03:49.967Z,981.53
2019-01-26T00:04:57.632Z,981.52
2019-01-26T00:05:50.472Z,981.54
2019-01-26T00:06:57.118Z,981.52
2019-01-26T00:07:54.150Z,981.51
2019-01-26T00:08:54.139Z,981.46
2019-01-26T00:09:58.622Z,981.46
2019-01-26T00:10:56.617Z,981.53
2019-01-26T00:11:52.612Z,981.51
2019-01-26T00:12:52.095Z,981.58
2019-01-26T00:14:00.110Z,981.59
2019-01-26T00:14:56.077Z,981.55
2019-01-26T00:15:51.783Z,981.54
2019-01-26T00:16:53.609Z,981.57
2019-01-26T00:17:57.162Z,981.53
2019-01-26T00:18:54.111Z,981.50
2019-01-26T00:19:53.593Z,981.49
2019-01-26T00:20:54.577Z,981.48
2019-01-26T00:21:54.615Z,981.50
2019-01-26T00:22:52.940Z,981.54
2019-01-26T00:23:55.143Z,981.48
2019-01-26T00:25:04.371Z,981.48
2019-01-26T00:25:57.109Z,981.51
2019-01-26T00:26:53.676Z,981.50
2019-01-26T00:27:54.931Z,981.46
2019-01-26T00:28:55.104Z,981.44
2019-01-26T00:29:56.110Z,981.43
2019-01-26T00:30:54.311Z,981.37
2019-01-26T00:31:56.106Z,981.33
2019-01-26T00:33:04.074Z,981.31
2019-01-26T00:33:56.611Z,981.26
2019-01-26T00:34:55.062Z,981.24
2019-01-26T00:35:56.562Z,981.23
2019-01-26T00:36:56.418Z,981.17
2019-01-26T00:37:55.540Z,981.16
2019-01-26T00:38:57.608Z,981.17
2019-01-26T00:39:55.940Z,981.17
2019-01-26T00:40:58.159Z,981.17
2019-01-26T00:41:57.506Z,981.19
2019-01-26T00:42:58.087Z,981.17
2019-01-26T00:44:12.114Z,981.20
2019-01-26T00:44:58.653Z,981.22
2019-01-26T00:46:00.611Z,981.17
2019-01-26T00:46:58.606Z,981.21
2019-01-26T00:47:59.110Z,981.17
2019-01-26T00:49:13.146Z,981.14
2019-01-26T00:49:59.106Z,981.18
2019-01-26T00:50:59.653Z,981.14
2019-01-26T00:51:59.113Z,981.11
2019-01-26T00:52:58.567Z,981.09
2019-01-26T00:54:00.111Z,981.07
2019-01-26T00:55:02.147Z,981.02
2019-01-26T00:56:00.113Z,980.98
2019-01-26T00:56:59.717Z,981.04
2019-01-26T00:58:00.613Z,981.03
2019-01-26T00:59:00.775Z,981.02
2019-01-26T00:59:59.078Z,981.00
2019-01-26T01:00:59.187Z,981.00
2019-01-26T01:02:03.106Z,980.95
2019-01-26T01:03:03.106Z,980.98
2019-01-26T01:04:01.105Z,980.96
2019-01-26T01:05:03.605Z,980.94
2019-01-26T01:06:01.073Z,980.86
2019-01-26T01:06:59.951Z,980.86
2019-01-26T01:08:00.054Z,980.86
2019-01-26T01:09:03.577Z,980.88
2019-01-26T01:10:01.439Z,980.90
2019-01-26T01:11:02.156Z,980.88
2019-01-26T01:12:01.194Z,980.85
2019-01-26T01:13:05.843Z,980.85
2019-01-26T01:14:01.053Z,980.84
2019-01-26T01:15:09.127Z,980.87
2019-01-26T01:16:02.062Z,980.81
2019-01-26T01:17:01.673Z,980.77
2019-01-26T01:19:35.389Z,980.68
2019-01-26T01:20:34.352Z,980.66
2019-01-26T01:21:36.354Z,980.62
2019-01-26T01:22:38.142Z,980.60
2019-01-26T01:23:34.128Z,980.62
2019-01-26T01:24:35.902Z,980.63
2019-01-26T01:25:41.403Z,980.64
2019-01-26T01:26:37.853Z,980.59
2019-01-26T01:27:34.813Z,980.57
2019-01-26T01:28:36.894Z,980.59
2019-01-26T01:29:38.899Z,980.54
2019-01-26T01:30:36.367Z,980.65
2019-01-26T01:31:40.362Z,980.56
2019-01-26T01:32:37.393Z,980.62
2019-01-26T01:33:42.409Z,980.56
2019-01-26T01:34:35.887Z,980.58
2019-01-26T01:35:37.256Z,980.61
2019-01-26T01:36:51.895Z,980.61
2019-01-26T01:37:36.331Z,980.61
2019-01-26T01:38:36.526Z,980.59
2019-01-26T01:39:36.758Z,980.58
2019-01-26T01:40:38.455Z,980.63
2019-01-26T01:41:38.059Z,980.62
2019-01-26T01:42:38.307Z,980.63
2019-01-26T01:43:37.260Z,980.63
2019-01-26T01:44:37.466Z,980.65
2019-01-26T01:45:37.664Z,980.65
2019-01-26T01:46:42.991Z,980.66
2019-01-26T01:47:39.939Z,980.59
2019-01-26T01:48:38.231Z,980.63
2019-01-26T01:49:42.389Z,980.64
2019-01-26T01:50:40.391Z,980.60
2019-01-26T01:51:40.391Z,980.60
2019-01-26T01:52:38.939Z,980.60
2019-01-26T01:53:40.931Z,980.68
2019-01-26T01:54:40.899Z,980.65
2019-01-26T01:55:40.889Z,980.67
2019-01-26T01:56:43.391Z,980.65
2019-01-26T01:57:39.587Z,980.61
2019-01-26T01:58:39.781Z,980.60
2019-01-26T01:59:51.150Z,980.55
2019-01-26T02:00:41.893Z,980.53
2019-01-26T02:01:51.960Z,980.55
2019-01-26T02:02:41.903Z,980.57
2019-01-26T02:03:41.712Z,980.49
2019-01-26T02:04:40.805Z,980.50
2019-01-26T02:05:42.909Z,980.49
2019-01-26T02:06:42.900Z,980.48
2019-01-26T02:07:42.366Z,980.51
2019-01-26T02:08:41.585Z,980.50
2019-01-26T02:09:45.437Z,980.45
2019-01-26T02:10:41.901Z,980.44
2019-01-26T02:11:43.916Z,980.48
2019-01-26T02:12:45.898Z,980.43
2019-01-26T02:13:49.400Z,980.41
2019-01-26T02:14:44.397Z,980.43
2019-01-26T02:15:45.844Z,980.34
2019-01-26T02:16:50.085Z,980.29
2019-01-26T02:18:04.146Z,980.26
2019-01-26T02:18:44.892Z,980.23
2019-01-26T02:19:45.442Z,980.21
2019-01-26T02:20:44.644Z,980.22
2019-01-26T02:21:43.733Z,980.21
2019-01-26T02:22:47.890Z,980.24
2019-01-26T02:23:45.890Z,980.23
2019-01-26T02:24:51.892Z,980.16
2019-01-26T02:25:52.423Z,980.14
2019-01-26T02:26:51.395Z,980.15
2019-01-26T02:27:44.837Z,980.25
2019-01-26T02:28:45.067Z,980.19
2019-01-26T02:29:46.892Z,980.16
2019-01-26T02:30:45.493Z,980.22
2019-01-26T02:31:49.434Z,980.24
2019-01-26T02:32:47.391Z,980.18
2019-01-26T02:33:47.896Z,980.22
2019-01-26T02:34:46.226Z,980.30
2019-01-26T02:35:48.397Z,980.27
2019-01-26T02:36:48.430Z,980.27
2019-01-26T02:37:46.792Z,980.26
2019-01-26T02:38:48.454Z,980.30
2019-01-26T02:39:50.898Z,980.30
2019-01-26T02:40:48.843Z,980.33
2019-01-26T02:41:50.077Z,980.34
2019-01-26T02:42:49.947Z,980.24
2019-01-26T02:43:48.846Z,980.24
2019-01-26T02:44:51.897Z,980.22
2019-01-26T02:45:49.896Z,980.18
2019-01-26T02:46:49.897Z,980.16
2019-01-26T02:47:49.947Z,980.13
2019-01-26T02:48:56.402Z,980.21
2019-01-26T02:50:00.389Z,980.19
2019-01-26T02:50:48.836Z,980.30
2019-01-26T02:51:49.897Z,980.29
2019-01-26T02:52:50.890Z,980.30
2019-01-26T02:53:50.893Z,980.27
2019-01-26T02:54:53.389Z,980.26
2019-01-26T02:55:52.365Z,980.19
2019-01-26T02:56:49.860Z,980.18
2019-01-26T02:57:51.939Z,980.13
2019-01-26T02:58:51.195Z,980.26
2019-01-26T02:59:51.898Z,980.23
2019-01-26T03:00:50.427Z,980.20
2019-01-26T03:01:54.408Z,980.19
2019-01-26T03:02:51.771Z,980.13
2019-01-26T03:03:58.391Z,980.04
2019-01-26T03:04:57.902Z,980.00
2019-01-26T03:05:53.870Z,980.02
2019-01-26T03:06:52.909Z,980.02
2019-01-26T03:07:51.960Z,980.00
2019-01-26T03:08:55.436Z,980.02
2019-01-26T03:09:54.124Z,979.97
2019-01-26T03:10:53.894Z,979.90
2019-01-26T03:11:52.147Z,979.92
2019-01-26T03:12:52.223Z,979.96
2019-01-26T03:13:52.432Z,980.00
2019-01-26T03:14:53.685Z,979.97
2019-01-26T03:15:52.763Z,980.02
2019-01-26T03:16:52.963Z,980.00
2019-01-26T03:17:55.153Z,979.99
2019-01-26T03:18:56.936Z,979.99
2019-01-26T03:19:53.512Z,979.95
2019-01-26T03:20:53.750Z,979.98
2019-01-26T03:21:55.906Z,979.94
2019-01-26T03:22:55.901Z,979.89
2019-01-26T03:23:57.891Z,979.93
2019-01-26T03:25:00.900Z,979.90
2019-01-26T03:25:54.605Z,979.85
2019-01-26T03:27:09.402Z,979.85
2019-01-26T03:27:55.951Z,979.81
2019-01-26T03:28:56.176Z,979.86
2019-01-26T03:29:55.303Z,979.88
2019-01-26T03:31:17.943Z,979.86
2019-01-26T03:31:55.575Z,979.80
2019-01-26T03:32:58.368Z,979.77
2019-01-26T03:33:55.934Z,979.80
2019-01-26T03:35:12.861Z,979.81
2019-01-26T03:35:57.890Z,979.78
2019-01-26T03:36:56.464Z,979.73
2019-01-26T03:37:56.674Z,979.72
2019-01-26T03:38:58.397Z,979.70
2019-01-26T03:39:56.976Z,979.77
2019-01-26T03:40:58.230Z,979.75
2019-01-26T03:41:58.892Z,979.76
2019-01-26T03:43:05.400Z,979.80
2019-01-26T03:43:59.479Z,979.84
2019-01-26T03:46:40.222Z,979.86
2019-01-26T03:47:29.823Z,979.78
2019-01-26T03:48:29.898Z,979.78
2019-01-26T03:49:37.948Z,979.77
2019-01-26T03:50:33.959Z,979.83
2019-01-26T03:51:30.414Z,979.84
2019-01-26T03:52:30.605Z,979.84
2019-01-26T03:53:32.443Z,979.82
2019-01-26T03:54:31.017Z,979.76
2019-01-26T03:55:34.399Z,979.84
2019-01-26T03:56:31.372Z,979.82
2019-01-26T03:57:33.671Z,979.75
2019-01-26T03:58:33.445Z,979.81
2019-01-26T03:59:32.930Z,979.78
2019-01-26T04:00:32.021Z,979.78
2019-01-26T04:01:35.947Z,979.74
2019-01-26T04:02:34.918Z,979.76
2019-01-26T04:03:32.903Z,979.75
2019-01-26T04:04:40.477Z,979.75
2019-01-26T04:05:32.634Z,979.76
2019-01-26T04:06:33.952Z,979.73
2019-01-26T04:07:36.945Z,979.71
2019-01-26T04:08:36.983Z,979.66
2019-01-26T04:09:39.956Z,979.70
2019-01-26T04:10:33.702Z,979.74
2019-01-26T04:11:35.447Z,979.68
2019-01-26T04:12:35.614Z,979.69
2019-01-26T04:13:35.943Z,979.64
2019-01-26T04:14:38.187Z,979.65
2019-01-26T04:15:36.445Z,979.65
2019-01-26T04:16:41.457Z,979.63
2019-01-26T04:17:51.448Z,979.62
2019-01-26T04:19:06.523Z,979.58
2019-01-26T04:19:36.982Z,979.60
2019-01-26T04:20:38.950Z,979.59
2019-01-26T04:21:35.355Z,979.54
2019-01-26T04:22:38.912Z,979.59
2019-01-26T04:23:58.465Z,979.59
2019-01-26T04:24:35.909Z,979.59
2019-01-26T04:25:37.046Z,979.61
2019-01-26T04:26:39.956Z,979.61
2019-01-26T04:27:39.944Z,979.57
2019-01-26T04:28:39.951Z,979.55
2019-01-26T04:29:37.907Z,979.56
2019-01-26T04:30:38.980Z,979.60
2019-01-26T04:31:42.016Z,979.60
2019-01-26T04:32:52.943Z,979.62
2019-01-26T04:33:44.453Z,979.58
2019-01-26T04:34:39.406Z,979.62
2019-01-26T04:35:38.898Z,979.64
2019-01-26T04:36:58.983Z,979.64
2019-01-26T04:38:01.961Z,979.63
2019-01-26T04:38:38.950Z,979.68
2019-01-26T04:39:39.411Z,979.67
2019-01-26T04:40:48.416Z,979.66
2019-01-26T04:41:40.969Z,979.65
2019-01-26T04:42:41.046Z,979.64
2019-01-26T04:43:41.898Z,979.54
2019-01-26T04:44:43.393Z,979.46
2019-01-26T04:46:02.448Z,979.50
2019-01-26T04:46:47.496Z,979.45
2019-01-26T04:47:41.026Z,979.46
2019-01-26T04:48:40.281Z,979.43
2019-01-26T04:50:03.898Z,979.38
2019-01-26T04:50:43.448Z,979.47
2019-01-26T04:51:41.708Z,979.40
2019-01-26T04:53:01.868Z,979.38
2019-01-26T04:53:46.465Z,979.35
2019-01-26T04:55:19.630Z,979.36
2019-01-26T05:01:27.059Z,979.41
2019-01-26T05:04:19.216Z,979.40
2019-01-26T05:07:02.701Z,979.44
2019-01-26T05:07:26.712Z,979.49
2019-01-26T05:09:57.074Z,979.44
2019-01-26T05:10:57.257Z,979.43
2019-01-26T05:11:55.449Z,979.42
2019-01-26T05:13:11.396Z,979.35
2019-01-26T05:13:56.338Z,979.38
2019-01-26T05:14:57.940Z,979.36
2019-01-26T05:17:38.812Z,979.36
2019-01-26T05:18:34.901Z,979.35
2019-01-26T05:19:30.360Z,979.36
2019-01-26T05:20:30.503Z,979.29
2019-01-26T05:21:33.633Z,979.35
2019-01-26T05:22:30.115Z,979.25
2019-01-26T05:23:30.951Z,979.29
2019-01-26T05:24:32.893Z,979.30
2019-01-26T05:25:35.347Z,979.28
2019-01-26T05:26:33.655Z,979.28
2019-01-26T05:27:57.358Z,979.26
2019-01-26T05:30:26.042Z,979.31
2019-01-26T05:31:04.133Z,979.24
2019-01-26T05:32:07.588Z,979.30
2019-01-26T05:33:08.211Z,979.27
2019-01-26T05:34:31.189Z,979.29
2019-01-26T05:35:15.163Z,979.31
2019-01-26T05:36:02.730Z,979.25
2019-01-26T05:37:34.838Z,979.27
2019-01-26T05:38:26.132Z,979.26
2019-01-26T05:39:07.149Z,979.29
2019-01-26T05:40:06.183Z,979.27
2019-01-26T05:41:07.865Z,979.30
2019-01-26T05:42:27.691Z,979.28
2019-01-26T05:43:06.663Z,979.28
2019-01-26T05:44:08.195Z,979.32
2019-01-26T05:45:07.379Z,979.28
2019-01-26T05:48:01.230Z,979.31
2019-01-26T05:48:39.239Z,979.32
2019-01-26T05:49:39.692Z,979.30
2019-01-26T05:50:40.899Z,979.29
2019-01-26T05:51:45.562Z,979.28
2019-01-26T05:52:37.506Z,979.27
2019-01-26T05:53:45.291Z,979.29
2019-01-26T05:54:44.251Z,979.30
2019-01-26T05:55:42.693Z,979.33
2019-01-26T05:56:42.991Z,979.30
2019-01-26T05:57:46.234Z,979.33
2019-01-26T05:58:40.245Z,979.32
2019-01-26T05:59:41.736Z,979.33
2019-01-26T06:00:40.741Z,979.26
2019-01-26T06:01:41.502Z,979.28
2019-01-26T06:02:49.189Z,979.29
2019-01-26T06:03:39.405Z,979.29
2019-01-26T06:04:40.617Z,979.28
2019-01-26T06:05:43.745Z,979.25
2019-01-26T06:06:41.743Z,979.26
2019-01-26T06:07:41.716Z,979.28
2019-01-26T06:08:40.177Z,979.24
2019-01-26T06:09:46.371Z,979.27
2019-01-26T06:12:14.775Z,979.30
2019-01-26T06:13:38.194Z,979.26
2019-01-26T06:16:14.250Z,979.22
2019-01-26T06:22:59.477Z,979.22
2019-01-26T06:24:07.719Z,979.21
2019-01-26T06:26:50.404Z,979.27
2019-01-26T06:27:26.866Z,979.21
2019-01-26T06:28:47.494Z,979.26
2019-01-26T06:29:26.867Z,979.20
2019-01-26T06:30:29.602Z,979.22
2019-01-26T06:31:28.471Z,979.24
2019-01-26T06:32:40.912Z,979.22
2019-01-26T06:33:49.470Z,979.28
2019-01-26T06:34:26.312Z,979.28
2019-01-26T06:35:47.539Z,979.31
2019-01-26T06:36:25.794Z,979.34
2019-01-26T06:37:27.903Z,979.37
2019-01-26T06:38:31.368Z,979.29
2019-01-26T06:39:51.065Z,979.35
2019-01-26T06:40:26.482Z,979.30
2019-01-26T06:41:29.384Z,979.29
2019-01-26T06:42:29.523Z,979.27
2019-01-26T06:43:28.927Z,979.23
2019-01-26T06:44:32.399Z,979.21
2019-01-26T06:45:30.966Z,979.18
2019-01-26T06:46:30.374Z,979.20
2019-01-26T06:47:27.724Z,979.19
2019-01-26T06:48:32.489Z,979.17
2019-01-26T06:49:32.294Z,979.13
2019-01-26T06:50:32.711Z,979.17
2019-01-26T06:51:29.524Z,979.15
2019-01-26T06:52:40.661Z,979.10
2019-01-26T06:53:29.361Z,979.08
2019-01-26T06:54:46.372Z,979.06
2019-01-26T06:55:31.868Z,979.13
2019-01-26T06:56:29.876Z,979.14
2019-01-26T06:57:32.874Z,979.20
2019-01-26T06:58:29.461Z,979.24
2019-01-26T06:59:29.661Z,979.24
2019-01-26T07:00:32.868Z,979.25
2019-01-26T07:01:45.923Z,979.28
2019-01-26T07:02:32.913Z,979.25
2019-01-26T07:03:31.916Z,979.24
2019-01-26T07:04:32.909Z,979.22
2019-01-26T07:05:35.474Z,979.25
2019-01-26T07:06:32.416Z,979.26
2019-01-26T07:07:33.893Z,979.24
2019-01-26T07:08:53.926Z,979.18
2019-01-26T07:09:32.952Z,979.17
2019-01-26T07:10:32.924Z,979.21
2019-01-26T07:11:33.438Z,979.18
2019-01-26T07:12:34.422Z,979.18
2019-01-26T07:13:33.174Z,979.14
2019-01-26T07:14:34.872Z,979.16
2019-01-26T07:15:36.947Z,979.15
2019-01-26T07:16:36.779Z,979.14
2019-01-26T07:19:09.272Z,979.13
2019-01-26T07:20:07.196Z,979.11
2019-01-26T07:21:09.270Z,979.10
2019-01-26T07:22:07.088Z,979.09
2019-01-26T07:23:12.737Z,979.11
2019-01-26T07:24:06.550Z,979.08
2019-01-26T07:25:09.614Z,978.96
2019-01-26T07:26:07.122Z,978.93
2019-01-26T07:27:12.996Z,978.90
2019-01-26T07:28:08.575Z,978.93
2019-01-26T07:29:07.710Z,978.94
2019-01-26T07:30:30.118Z,978.95
2019-01-26T07:31:31.124Z,978.98
2019-01-26T07:32:30.478Z,978.96
2019-01-26T07:33:09.553Z,979.02
2019-01-26T07:54:22.490Z,978.90
2019-01-26T07:55:29.151Z,978.85
2019-01-26T07:56:27.615Z,978.82
2019-01-26T07:58:55.704Z,978.75
2019-01-26T07:59:56.654Z,978.76
2019-01-26T08:01:09.160Z,978.82
2019-01-26T08:01:55.317Z,978.85
2019-01-26T08:02:56.143Z,978.92
2019-01-26T08:03:55.206Z,978.94
2019-01-26T08:05:09.774Z,978.97
2019-01-26T08:05:56.788Z,978.97
2019-01-26T08:07:16.655Z,978.97
2019-01-26T08:07:56.216Z,978.98
2019-01-26T08:09:00.214Z,978.98
2019-01-26T08:10:19.154Z,978.94
2019-01-26T08:10:56.695Z,978.88
2019-01-26T08:12:10.848Z,978.87
2019-01-26T08:12:56.267Z,978.86
2019-01-26T08:14:22.712Z,978.80
2019-01-26T08:16:54.726Z,978.83
2019-01-26T08:17:29.282Z,978.87
2019-01-26T08:18:32.228Z,978.87
2019-01-26T08:19:52.778Z,978.95
2019-01-26T08:22:03.225Z,978.94
2019-01-26T08:23:05.174Z,978.88
2019-01-26T08:24:01.778Z,978.94
2019-01-26T08:25:05.243Z,978.97
2019-01-26T08:26:06.269Z,978.98
2019-01-26T08:27:05.539Z,978.90
2019-01-26T08:28:04.718Z,978.94
2019-01-26T08:30:35.035Z,978.78
2019-01-26T08:32:09.564Z,978.74
2019-01-26T08:37:31.780Z,978.63
2019-01-26T08:40:06.400Z,978.68
2019-01-26T08:45:47.502Z,978.81
2019-01-26T10:29:19.520Z,978.73
2019-01-26T10:29:57.977Z,978.67
2019-01-26T10:30:58.168Z,978.70
2019-01-26T10:31:59.987Z,978.66
2019-01-26T10:33:02.010Z,978.69
2019-01-26T10:34:00.578Z,978.62
2019-01-26T10:35:02.586Z,978.66
2019-01-26T10:36:00.974Z,978.71
2019-01-26T10:37:02.023Z,978.65
2019-01-26T10:38:15.040Z,978.68
2019-01-26T10:39:15.043Z,978.70
2019-01-26T10:40:03.530Z,978.66
2019-01-26T10:41:05.819Z,978.71
2019-01-26T10:42:25.540Z,978.69
2019-01-26T10:43:16.039Z,978.75
2019-01-26T10:44:13.233Z,978.75
2019-01-26T10:45:04.001Z,978.73
2019-01-26T10:47:42.212Z,978.78
2019-01-26T10:48:38.721Z,978.78
2019-01-26T10:49:37.044Z,978.75
2019-01-26T10:50:35.686Z,978.76
2019-01-26T10:51:34.725Z,978.72
2019-01-26T10:54:26.878Z,978.71
2019-01-26T10:56:44.184Z,978.75
2019-01-26T10:58:00.229Z,978.67
2019-01-26T10:58:39.668Z,978.72
2019-01-26T10:59:45.132Z,978.73
2019-01-26T11:02:25.720Z,978.66
2019-01-26T11:03:13.376Z,978.69
2019-01-26T11:04:13.173Z,978.73
2019-01-26T11:05:13.054Z,978.70
2019-01-26T11:06:13.134Z,978.73
2019-01-26T11:07:10.591Z,978.76
2019-01-26T11:08:35.088Z,978.76
2019-01-26T11:09:18.629Z,978.78
2019-01-26T11:10:14.603Z,978.82
2019-01-26T11:11:14.054Z,978.79
2019-01-26T11:12:14.181Z,978.81
2019-01-26T11:13:35.073Z,978.86
2019-01-26T11:14:13.844Z,978.76
2019-01-26T11:15:27.599Z,978.79
2019-01-26T11:16:15.075Z,978.73
2019-01-26T11:17:20.104Z,978.64
2019-01-26T11:18:14.138Z,978.72
2019-01-26T11:19:13.564Z,978.69
2019-01-26T11:20:37.555Z,978.71
2019-01-26T11:21:15.225Z,978.70
2019-01-26T11:22:39.054Z,978.71
2019-01-26T11:23:29.171Z,978.63
2019-01-26T11:24:22.562Z,978.60
2019-01-26T11:25:35.547Z,978.65
2019-01-26T11:26:48.941Z,978.65
2019-01-26T11:27:36.883Z,978.62
2019-01-26T11:28:38.824Z,978.60
2019-01-26T11:29:17.683Z,978.58
2019-01-26T11:32:21.013Z,978.52
2019-01-26T11:32:50.036Z,978.52
2019-01-26T11:33:49.986Z,978.52
2019-01-26T11:35:03.472Z,978.50
2019-01-26T11:35:55.359Z,978.49
2019-01-26T11:36:52.018Z,978.47
2019-01-26T11:38:24.149Z,978.48
2019-01-26T11:40:50.401Z,978.47
2019-01-26T11:41:47.318Z,978.45
2019-01-26T11:42:31.801Z,978.44
2019-01-26T11:43:25.649Z,978.44
2019-01-26T11:44:47.557Z,978.51
2019-01-26T11:55:15.082Z,978.36
2019-01-26T11:56:05.975Z,978.36
2019-01-26T11:59:04.276Z,978.31
2019-01-26T11:59:57.268Z,978.31
2019-01-26T12:02:34.377Z,978.28
2019-01-26T12:17:41.916Z,978.20
2019-01-26T12:19:36.214Z,978.24
2019-01-26T12:30:15.224Z,978.16
2019-01-26T13:35:54.707Z,977.76
2019-01-26T13:37:05.103Z,977.75
2019-01-26T13:37:50.576Z,977.78
2019-01-26T13:38:49.782Z,977.77
2019-01-26T13:39:51.598Z,977.70
2019-01-26T13:40:50.185Z,977.70
2019-01-26T13:41:51.122Z,977.73
2019-01-26T13:42:54.079Z,977.70
2019-01-26T13:43:53.786Z,977.74
2019-01-26T13:44:55.517Z,977.74
2019-01-26T13:45:51.028Z,977.75
2019-01-26T13:46:53.236Z,977.76
2019-01-26T13:48:15.063Z,977.77
2019-01-26T13:48:54.517Z,977.69
2019-01-26T13:49:55.561Z,977.67
2019-01-26T13:50:53.564Z,977.73
2019-01-26T13:52:03.661Z,977.69
2019-01-26T13:52:59.172Z,977.72
2019-01-26T13:53:53.372Z,977.69
2019-01-26T13:54:56.079Z,977.65
2019-01-26T13:55:52.710Z,977.67
2019-01-26T13:57:02.842Z,977.63
2019-01-26T13:57:57.736Z,977.71
2019-01-26T13:58:55.151Z,977.61
2019-01-26T13:59:55.072Z,977.66
2019-01-26T14:00:53.563Z,977.62
2019-01-26T14:02:01.564Z,977.61
2019-01-26T14:03:10.540Z,977.62
2019-01-26T14:03:57.022Z,977.62
2019-01-26T14:04:54.156Z,977.62
2019-01-26T14:05:54.268Z,977.63
2019-01-26T14:06:54.382Z,977.67
2019-01-26T14:07:56.579Z,977.61
2019-01-26T14:08:55.747Z,977.59
2019-01-26T14:09:56.571Z,977.59
2019-01-26T14:10:55.021Z,977.60
2019-01-26T14:11:59.102Z,977.58
2019-01-26T14:12:55.496Z,977.56
2019-01-26T14:14:08.739Z,977.56
2019-01-26T14:14:57.597Z,977.50
2019-01-26T14:15:58.412Z,977.58
2019-01-26T14:17:20.382Z,977.54
2019-01-26T14:17:58.082Z,977.53
2019-01-26T14:18:58.046Z,977.51
2019-01-26T14:20:12.774Z,977.50
2019-01-26T14:21:00.902Z,977.46
2019-01-26T14:22:22.552Z,977.41
2019-01-26T14:23:00.616Z,977.48
2019-01-26T14:24:01.074Z,977.41
2019-01-26T14:25:20.104Z,977.40
2019-01-26T14:26:01.062Z,977.43
2019-01-26T14:27:13.577Z,977.41
2019-01-26T14:28:00.511Z,977.44
2019-01-26T14:29:01.070Z,977.45
2019-01-26T14:29:58.269Z,977.40
2019-01-26T14:30:58.718Z,977.41
2019-01-26T14:32:01.052Z,977.45
2019-01-26T14:34:38.174Z,977.35
2019-01-26T14:35:32.253Z,977.35
2019-01-26T14:36:39.738Z,977.30
2019-01-26T14:37:31.767Z,977.32
2019-01-26T14:38:31.265Z,977.31
2019-01-26T14:39:33.281Z,977.29
2019-01-26T14:40:53.623Z,977.30
2019-01-26T14:41:31.732Z,977.29
2019-01-26T14:42:34.430Z,977.31
2019-01-26T14:43:34.334Z,977.32
2019-01-26T14:44:58.799Z,977.30
2019-01-26T14:45:34.245Z,977.29
2019-01-26T14:46:32.461Z,977.20
2019-01-26T14:47:44.468Z,977.23
2019-01-26T14:48:48.285Z,977.23
2019-01-26T14:49:34.772Z,977.20
2019-01-26T14:50:42.736Z,977.18
2019-01-26T14:51:36.836Z,977.19
2019-01-26T14:52:39.379Z,977.17
2019-01-26T14:53:35.288Z,977.24
2019-01-26T14:54:34.913Z,977.14
2019-01-26T14:55:37.789Z,977.18
2019-01-26T14:56:36.832Z,977.11
2019-01-26T14:57:35.496Z,977.14
2019-01-26T14:58:35.584Z,977.13
2019-01-26T14:59:51.733Z,977.17
2019-01-26T15:00:42.864Z,977.14
2019-01-26T15:01:57.789Z,977.11
2019-01-26T15:02:38.271Z,977.15
2019-01-26T15:03:44.264Z,977.12
2019-01-26T15:04:35.458Z,977.13
2019-01-26T15:05:58.291Z,977.11
2019-01-26T15:06:39.779Z,977.12
2019-01-26T15:07:37.790Z,977.09
2019-01-26T15:08:37.812Z,977.13
2019-01-26T15:09:51.783Z,977.07
2019-01-26T15:10:53.240Z,977.08
2019-01-26T15:11:38.278Z,977.14
2019-01-26T15:12:38.250Z,977.09
2019-01-26T15:13:41.767Z,977.11
2019-01-26T15:14:38.096Z,977.09
2019-01-26T15:15:37.309Z,977.14
2019-01-26T15:18:12.651Z,977.10
2019-01-26T15:19:11.167Z,977.09
2019-01-26T15:20:10.873Z,977.11
2019-01-26T15:21:12.375Z,977.10
2019-01-26T15:22:11.826Z,977.10
2019-01-26T15:23:15.731Z,977.07
2019-01-26T15:24:34.601Z,977.09
2019-01-26T15:25:10.527Z,977.09
2019-01-26T15:26:12.157Z,977.08
2019-01-26T15:27:14.150Z,977.09
2019-01-26T15:28:10.731Z,977.12
2019-01-26T15:29:10.926Z,977.09
2019-01-26T15:30:14.413Z,977.08
2019-01-26T15:31:11.251Z,977.09
2019-01-26T15:32:14.119Z,977.06
2019-01-26T15:33:13.144Z,977.09
2019-01-26T15:34:13.796Z,977.06
2019-01-26T15:35:12.619Z,977.06
2019-01-26T15:36:19.679Z,977.09
2019-01-26T15:37:20.290Z,977.03
2019-01-26T15:38:14.194Z,977.07
2019-01-26T15:39:13.651Z,977.11
2019-01-26T15:40:12.849Z,977.11
2019-01-26T15:41:14.694Z,977.12
2019-01-26T15:42:13.165Z,977.07
2019-01-26T15:43:20.156Z,977.09
2019-01-26T15:44:13.482Z,977.07
2019-01-26T15:45:13.683Z,977.04
2019-01-26T15:46:14.610Z,977.09
2019-01-26T15:47:15.660Z,977.08
2019-01-26T15:48:16.197Z,977.09
2019-01-26T15:49:14.465Z,977.08
2019-01-26T15:50:16.151Z,977.04
2019-01-26T15:51:14.745Z,977.06
2019-01-26T15:52:16.652Z,977.08
2019-01-26T15:53:15.614Z,977.08
2019-01-26T15:54:23.419Z,977.08
2019-01-26T15:55:17.189Z,977.03
2019-01-26T15:56:32.789Z,977.02
2019-01-26T15:57:16.952Z,977.03
2019-01-26T15:58:15.896Z,977.01
2019-01-26T15:59:19.782Z,977.00
2019-01-26T16:00:18.108Z,977.01
2019-01-26T16:01:18.273Z,977.03
2019-01-26T16:02:17.103Z,976.93
2019-01-26T16:03:16.693Z,976.93
2019-01-26T16:04:32.658Z,976.90
2019-01-26T16:05:17.606Z,976.89
2019-01-26T16:06:19.343Z,976.86
2019-01-26T16:07:20.643Z,976.86
2019-01-26T16:08:21.303Z,976.86
2019-01-26T16:09:19.685Z,976.89
2019-01-26T16:10:19.613Z,976.88
2019-01-26T16:11:20.300Z,976.87
2019-01-26T16:12:42.607Z,976.83
2019-01-26T16:13:24.684Z,976.85
2019-01-26T16:14:18.501Z,976.83
2019-01-26T16:15:20.649Z,976.76
2019-01-26T16:16:22.651Z,976.81
2019-01-26T16:17:21.613Z,976.82
2019-01-26T16:18:21.178Z,976.79
2019-01-26T16:19:21.147Z,976.78
2019-01-26T16:20:21.154Z,976.77
2019-01-26T16:21:20.652Z,976.80
2019-01-26T16:22:20.739Z,976.84
2019-01-26T16:23:28.607Z,976.85
2019-01-26T16:24:22.609Z,976.80
2019-01-26T16:25:26.223Z,976.79
2019-01-26T16:26:20.309Z,976.80
2019-01-26T16:27:22.153Z,976.79
2019-01-26T16:28:22.608Z,976.79
2019-01-26T16:29:21.000Z,976.79
2019-01-26T16:30:24.652Z,976.78
2019-01-26T16:31:21.219Z,976.80
2019-01-26T16:32:25.972Z,976.74
2019-01-26T16:33:22.620Z,976.75
2019-01-26T16:34:23.654Z,976.73
2019-01-26T16:35:25.652Z,976.72
2019-01-26T16:36:26.630Z,976.71
2019-01-26T16:37:24.702Z,976.66
2019-01-26T16:38:22.291Z,976.71
2019-01-26T16:39:45.156Z,976.70
2019-01-26T16:40:24.690Z,976.63
2019-01-26T16:41:24.666Z,976.64
2019-01-26T16:42:24.648Z,976.64
2019-01-26T16:43:25.600Z,976.67
2019-01-26T16:44:23.445Z,976.62
2019-01-26T16:45:25.641Z,976.62
2019-01-26T16:46:31.905Z,976.60
2019-01-26T16:47:25.670Z,976.60
2019-01-26T16:48:25.648Z,976.57
2019-01-26T16:49:24.348Z,976.55
2019-01-26T16:50:27.736Z,976.53
2019-01-26T16:51:24.589Z,976.58
2019-01-26T16:52:24.795Z,976.53
2019-01-26T16:53:28.647Z,976.51
2019-01-26T16:54:29.252Z,976.51
2019-01-26T16:55:33.149Z,976.52
2019-01-26T16:56:28.143Z,976.49
2019-01-26T16:57:30.762Z,976.49
2019-01-26T16:58:25.977Z,976.46
2019-01-26T16:59:42.149Z,976.46
2019-01-26T17:00:26.339Z,976.53
2019-01-26T17:01:28.153Z,976.47
2019-01-26T17:02:31.674Z,976.49
2019-01-26T17:03:26.903Z,976.46
2019-01-26T17:04:28.147Z,976.47
2019-01-26T17:05:29.148Z,976.45
2019-01-26T17:06:30.112Z,976.42
2019-01-26T17:07:29.797Z,976.43
2019-01-26T17:08:27.677Z,976.42
2019-01-26T17:09:35.107Z,976.38
2019-01-26T17:10:34.375Z,976.36
2019-01-26T17:11:36.686Z,976.38
2019-01-26T17:12:35.166Z,976.36
2019-01-26T17:13:32.174Z,976.39
2019-01-26T17:14:32.690Z,976.37
2019-01-26T17:15:28.916Z,976.33